Time;durP1;ratioP1;P1;durP2;ratioP2;P2;SDS_P1;SDS_P2;PMS_P1;PMS_P2;Temp;Humidity;BMP_temperature;BMP_pressure;BME280_temperature;BME280_humidity;BME280_pressure;Samples;Min_cycle;Max_cycle;Signal;HPM_P1;HPM_P2
2022/10/31 00:02:07;;;;;;;13.70;4.97;;;13.00;99.90;;;12.09;100.00;97818.78;5052414;28;20397;-75
2022/10/31 00:04:33;;;;;;;10.25;4.85;;;13.00;99.90;;;12.05;100.00;97813.16;5051786;28;20428;-75
2022/10/31 00:07:00;;;;;;;10.63;4.80;;;13.00;99.90;;;12.03;100.00;97823.19;5052393;28;20441;-74
2022/10/31 00:09:26;;;;;;;9.87;4.57;;;12.90;99.90;;;12.01;100.00;97823.47;5051979;28;20771;-74
2022/10/31 00:11:52;;;;;;;9.32;4.70;;;12.90;99.90;;;12.02;100.00;97817.13;5052127;28;20414;-74
2022/10/31 00:14:18;;;;;;;10.30;4.50;;;13.00;99.90;;;12.03;100.00;97817.91;5051767;28;20759;-74
2022/10/31 00:16:44;;;;;;;14.65;5.95;;;13.00;99.90;;;12.01;100.00;97810.22;5052044;28;20409;-75
2022/10/31 00:19:09;;;;;;;13.35;5.53;;;12.90;99.90;;;12.01;100.00;97809.41;5051896;28;20741;-74
2022/10/31 00:21:36;;;;;;;14.07;5.15;;;13.00;99.90;;;12.02;100.00;97822.44;5052052;28;20406;-74
2022/10/31 00:24:04;;;;;;;11.90;4.40;;;13.00;99.90;;;11.99;100.00;97814.97;5051639;28;20455;-74
2022/10/31 00:26:31;;;;;;;11.50;5.07;;;12.90;99.90;;;11.97;100.00;97816.25;5051757;28;20413;-74
2022/10/31 00:28:57;;;;;;;12.70;5.18;;;12.90;99.90;;;11.98;100.00;97813.34;5050714;28;20866;-75
2022/10/31 00:31:23;;;;;;;12.20;4.53;;;12.90;99.90;;;11.96;100.00;97814.63;5051798;28;20410;-74
2022/10/31 00:33:49;;;;;;;12.23;5.25;;;12.80;99.90;;;11.96;100.00;97826.06;5051490;28;20464;-75
2022/10/31 00:36:18;;;;;;;8.82;4.43;;;12.90;99.90;;;11.90;100.00;97811.13;5051591;28;20484;-74
2022/10/31 00:38:45;;;;;;;13.77;4.40;;;12.80;99.90;;;11.92;100.00;97811.69;5051654;28;20416;-74
2022/10/31 00:41:14;;;;;;;12.93;4.60;;;12.80;99.90;;;11.92;100.00;97822.31;5051661;28;20389;-74
2022/10/31 00:43:40;;;;;;;7.72;4.05;;;12.80;99.90;;;11.90;100.00;97820.94;5051207;28;20405;-75
2022/10/31 00:46:06;;;;;;;11.30;4.47;;;12.80;99.90;;;11.91;100.00;97818.06;5050974;28;20452;-75
2022/10/31 00:48:32;;;;;;;8.27;4.27;;;12.80;99.90;;;11.88;100.00;97821.19;5049928;28;20405;-74
2022/10/31 00:50:57;;;;;;;8.90;4.50;;;12.80;99.90;;;11.87;100.00;97818.81;5051328;28;20413;-74
2022/10/31 00:53:23;;;;;;;7.30;4.40;;;12.80;99.90;;;11.86;100.00;97817.19;5051155;28;20944;-74
2022/10/31 00:55:49;;;;;;;12.25;4.85;;;12.80;99.90;;;11.86;100.00;97825.16;5051292;28;20485;-75
2022/10/31 00:58:17;;;;;;;15.88;4.40;;;12.80;99.90;;;11.83;100.00;97818.50;5051312;28;20401;-74
2022/10/31 01:00:43;;;;;;;14.50;5.03;;;12.80;99.90;;;11.81;100.00;97817.94;5043697;28;20403;-75
2022/10/31 01:03:09;;;;;;;13.20;4.63;;;12.70;99.90;;;11.76;100.00;97820.53;5030858;28;20422;-74
2022/10/31 01:05:34;;;;;;;9.10;3.92;;;12.70;99.90;;;11.74;100.00;97814.66;5031083;28;20407;-74
2022/10/31 01:08:00;;;;;;;11.77;4.57;;;12.70;99.90;;;11.74;100.00;97808.53;5031267;28;20485;-74
2022/10/31 01:10:26;;;;;;;10.50;4.57;;;12.70;99.90;;;11.74;100.00;97811.19;5030909;28;20415;-74
2022/10/31 01:12:52;;;;;;;11.68;4.43;;;12.70;99.90;;;11.74;100.00;97804.06;5030792;28;20410;-74
2022/10/31 01:15:22;;;;;;;17.10;4.28;;;12.70;99.90;;;11.74;100.00;97809.34;5030991;28;20407;-74
2022/10/31 01:17:48;;;;;;;11.55;4.55;;;12.60;99.90;;;11.73;100.00;97806.94;5031132;28;20409;-74
2022/10/31 01:20:16;;;;;;;10.10;4.70;;;12.60;99.90;;;11.71;100.00;97811.69;5031068;28;20554;-74
2022/10/31 01:22:42;;;;;;;11.93;5.10;;;12.60;99.90;;;11.69;100.00;97803.97;5030813;28;20407;-75
2022/10/31 01:25:09;;;;;;;10.75;4.70;;;12.60;99.90;;;11.68;100.00;97805.03;5030703;28;20407;-74
2022/10/31 01:27:35;;;;;;;8.80;4.20;;;12.60;99.90;;;11.69;100.00;97806.63;5030994;28;20502;-74
2022/10/31 01:30:01;;;;;;;10.60;4.60;;;12.60;99.90;;;11.70;100.00;97805.59;5030880;28;20433;-74
2022/10/31 01:32:32;;;;;;;8.98;4.25;;;12.70;99.90;;;11.69;100.00;97809.28;5030758;28;20515;-74
2022/10/31 01:34:58;;;;;;;12.52;4.38;;;12.70;99.90;;;11.68;100.00;97806.88;5030488;28;20409;-74
2022/10/31 01:37:23;;;;;;;7.93;4.57;;;12.60;99.90;;;11.67;100.00;97808.72;5030747;28;20485;-74
2022/10/31 01:39:49;;;;;;;9.47;4.50;;;12.60;99.90;;;11.67;100.00;97811.38;5030227;28;20407;-74
2022/10/31 01:42:21;;;;;;;9.30;4.70;;;12.60;99.90;;;11.68;100.00;97804.22;5030569;28;20930;-74
2022/10/31 01:44:58;;;;;;;18.38;4.75;;;12.60;99.90;;;11.66;100.00;97801.81;5030257;28;20738;-74
2022/10/31 01:47:40;;;;;;;11.13;4.50;;;12.60;99.90;;;11.66;100.00;97807.09;5030534;28;20415;-74
2022/10/31 01:50:22;;;;;;;12.23;4.85;;;12.60;99.90;;;11.65;100.00;97800.22;5030546;28;21206;-74
2022/10/31 01:52:51;;;;;;;13.30;4.82;;;12.60;99.90;;;11.62;100.00;97790.09;5030202;28;20410;-75
2022/10/31 01:55:23;;;;;;;11.35;4.32;;;12.50;99.90;;;11.61;100.00;97797.25;5030520;28;20407;-74
2022/10/31 01:57:54;;;;;;;9.35;4.40;;;12.60;99.90;;;11.59;100.00;97793.25;5030571;28;20738;-75
2022/10/31 02:00:21;;;;;;;8.60;4.30;;;12.50;99.90;;;11.56;100.00;97794.56;5030454;28;20479;-74
2022/10/31 02:02:51;;;;;;;7.90;4.55;;;12.50;99.90;;;11.55;100.00;97797.44;5030031;28;20406;-74
2022/10/31 02:05:21;;;;;;;13.00;5.60;;;12.50;99.90;;;11.55;100.00;97803.56;5030340;28;20896;-74
2022/10/31 02:07:55;;;;;;;10.90;4.90;;;12.50;99.90;;;11.53;100.00;97796.88;5030556;28;20391;-74
2022/10/31 02:10:22;;;;;;;9.63;4.80;;;12.40;99.90;;;11.51;100.00;97793.66;4993877;22;1728529;-74
2022/10/31 02:12:51;;;;;;;15.88;5.00;;;12.40;99.90;;;11.51;100.00;97789.16;5049254;28;20453;-75
2022/10/31 02:15:17;;;;;;;8.70;4.07;;;12.50;99.90;;;11.50;100.00;97787.56;5050204;28;20433;-75
2022/10/31 02:17:43;;;;;;;11.80;4.40;;;12.50;99.90;;;11.51;100.00;97791.00;5065581;28;20487;-75
2022/10/31 02:20:17;;;;;;;8.77;4.10;;;12.50;99.90;;;11.47;100.00;97795.22;5039428;28;20881;-75
2022/10/31 02:23:33;;;;;;;11.93;5.53;;;12.40;99.90;;;11.45;100.00;97794.66;5028659;28;20781;-76
2022/10/31 02:26:23;;;;;;;11.35;4.70;;;12.40;99.90;;;11.43;100.00;97794.91;5022063;28;20789;-76
2022/10/31 02:29:41;;;;;;;9.63;4.18;;;12.40;99.90;;;11.40;100.00;97794.59;5030214;28;20407;-76
2022/10/31 02:32:17;;;;;;;9.57;4.67;;;12.30;99.90;;;11.38;100.00;97796.69;4972196;28;20859;-76
2022/10/31 02:34:52;;;;;;;15.77;5.28;;;12.30;99.90;;;11.40;100.00;97798.06;4988048;28;20418;-76
2022/10/31 02:37:29;;;;;;;7.87;4.60;;;12.40;99.90;;;11.38;100.00;97799.34;5017087;28;20834;-76
2022/10/31 02:40:01;;;;;;;10.93;4.10;;;12.30;99.90;;;11.37;100.00;97797.72;5030110;28;20896;-76
2022/10/31 02:42:35;;;;;;;14.57;4.38;;;12.30;99.90;;;11.35;100.00;97792.66;5030021;28;20438;-77
2022/10/31 02:45:11;;;;;;;8.63;4.35;;;12.30;99.90;;;11.30;100.00;97800.56;5029630;28;20405;-76
2022/10/31 02:47:39;;;;;;;9.18;4.60;;;12.20;99.90;;;11.29;100.00;97793.66;5030224;28;20406;-76
2022/10/31 02:50:10;;;;;;;11.47;4.43;;;12.20;99.90;;;11.25;100.00;97796.00;5030073;28;20407;-76
2022/10/31 02:52:36;;;;;;;16.50;5.30;;;12.20;99.90;;;11.28;100.00;97788.63;5033438;28;20777;-76
2022/10/31 02:55:44;;;;;;;11.00;4.72;;;12.20;99.90;;;11.22;100.00;97790.38;5033583;28;20403;-76
2022/10/31 02:58:14;;;;;;;11.73;5.13;;;12.20;99.90;;;11.22;100.00;97803.63;5032634;28;20501;-76
2022/10/31 03:00:57;;;;;;;11.10;4.90;;;12.20;99.90;;;11.22;100.00;97798.34;5033764;28;20908;-76
2022/10/31 03:03:31;;;;;;;12.40;5.22;;;12.20;99.90;;;11.20;100.00;97790.63;5033501;28;20725;-76
2022/10/31 03:06:06;;;;;;;14.88;5.43;;;12.20;99.90;;;11.21;100.00;97791.44;5033843;28;20456;-76
2022/10/31 03:08:43;;;;;;;10.98;4.85;;;12.20;99.90;;;11.18;100.00;97795.38;5033673;28;20761;-76
2022/10/31 03:11:09;;;;;;;11.43;5.03;;;12.20;99.90;;;11.15;100.00;97789.75;5032170;28;20418;-77
2022/10/31 03:13:46;;;;;;;12.20;5.43;;;12.10;99.90;;;11.13;100.00;97782.06;5033120;28;20402;-76
2022/10/31 03:16:15;;;;;;;12.20;4.47;;;12.10;99.90;;;11.13;100.00;97787.34;5033502;28;20772;-76
2022/10/31 03:18:50;;;;;;;19.23;5.80;;;12.10;99.90;;;11.12;100.00;97787.63;5033335;28;20411;-76
2022/10/31 03:21:22;;;;;;;13.40;4.80;;;12.10;99.90;;;11.12;100.00;97779.66;5033485;28;20407;-76
2022/10/31 03:23:50;;;;;;;13.98;4.65;;;12.10;99.90;;;11.09;100.00;97786.25;5033046;28;20876;-76
2022/10/31 03:26:17;;;;;;;10.27;4.88;;;12.00;99.90;;;11.09;100.00;97788.91;5033156;28;20402;-77
2022/10/31 03:28:49;;;;;;;13.57;5.05;;;12.00;99.90;;;11.05;100.00;97798.38;5033290;28;20401;-76
2022/10/31 03:31:19;;;;;;;8.82;4.75;;;12.00;99.90;;;11.02;100.00;97790.13;5033126;28;20506;-76
2022/10/31 03:33:49;;;;;;;13.52;4.90;;;12.00;99.90;;;11.02;100.00;97790.91;5032995;28;20449;-76
2022/10/31 03:36:16;;;;;;;8.50;4.60;;;12.00;99.90;;;11.02;100.00;97795.41;5033081;28;20976;-76
2022/10/31 03:38:45;;;;;;;12.70;5.25;;;12.00;99.90;;;11.01;100.00;97791.97;5033111;28;20775;-76
2022/10/31 03:41:18;;;;;;;13.43;4.85;;;12.00;99.90;;;11.03;100.00;97789.88;5031700;28;20413;-77
2022/10/31 03:43:55;;;;;;;17.90;5.82;;;12.00;99.90;;;11.01;100.00;97791.16;5032603;28;20474;-77
2022/10/31 03:46:22;;;;;;;10.82;4.88;;;12.00;99.90;;;10.95;100.00;97785.00;5032873;28;20403;-76
2022/10/31 03:48:50;;;;;;;12.68;5.35;;;11.90;99.90;;;10.96;100.00;97797.19;5032827;28;20407;-76
2022/10/31 03:51:22;;;;;;;12.32;5.00;;;11.90;99.90;;;10.98;100.00;97792.44;5032727;28;20415;-76
2022/10/31 03:53:56;;;;;;;11.23;5.30;;;11.90;99.90;;;10.98;100.00;97791.63;5031045;28;20453;-76
2022/10/31 03:56:32;;;;;;;16.02;5.03;;;11.90;99.90;;;10.97;100.00;97788.22;5032680;28;20453;-76
2022/10/31 03:59:06;;;;;;;11.43;5.13;;;11.90;99.90;;;10.94;100.00;97780.75;5032484;28;20470;-76
2022/10/31 04:01:36;;;;;;;7.53;4.25;;;11.90;99.90;;;10.91;100.00;97783.06;5032356;28;20756;-76
2022/10/31 04:04:05;;;;;;;16.42;5.43;;;11.90;99.90;;;10.90;100.00;97784.91;5032124;28;20415;-77
2022/10/31 04:06:34;;;;;;;9.13;4.70;;;11.90;99.90;;;10.89;100.00;97788.63;5032480;28;20427;-76
2022/10/31 04:09:05;;;;;;;11.23;4.97;;;11.90;99.90;;;10.89;100.00;97785.97;5032212;28;20410;-76
2022/10/31 04:11:36;;;;;;;8.40;4.85;;;11.90;99.90;;;10.88;100.00;97786.22;5032260;28;20428;-76
2022/10/31 04:14:03;;;;;;;11.98;5.00;;;11.80;99.90;;;10.87;100.00;97782.75;5031955;28;20410;-76
2022/10/31 04:16:29;;;;;;;12.05;5.13;;;11.80;99.90;;;10.85;100.00;97785.63;5032227;28;20418;-76
2022/10/31 04:18:56;;;;;;;11.37;5.80;;;11.80;99.90;;;10.82;100.00;97780.84;5032103;28;20492;-76
2022/10/31 04:21:29;;;;;;;14.50;6.05;;;11.80;99.90;;;10.82;100.00;97777.41;5032400;28;20764;-76
2022/10/31 04:23:57;;;;;;;8.10;4.53;;;11.80;99.90;;;10.82;100.00;97772.09;5031847;28;20403;-76
2022/10/31 04:26:23;;;;;;;12.10;4.90;;;11.80;99.90;;;10.81;100.00;97776.59;5032051;28;20431;-76
2022/10/31 04:28:48;;;;;;;13.68;5.30;;;11.80;99.90;;;10.78;100.00;97771.78;5032015;28;20403;-76
2022/10/31 04:31:15;;;;;;;11.27;5.15;;;11.70;99.90;;;10.74;100.00;97775.97;5030744;28;20422;-76
2022/10/31 04:33:41;;;;;;;11.38;5.25;;;11.70;99.90;;;10.72;100.00;97777.22;5031578;28;20408;-76
2022/10/31 04:36:08;;;;;;;9.93;5.10;;;11.70;99.90;;;10.71;100.00;97778.28;5031862;28;20521;-76
2022/10/31 04:38:35;;;;;;;16.33;6.00;;;11.70;99.90;;;10.69;100.00;97764.47;5031853;28;20877;-76
2022/10/31 04:41:01;;;;;;;8.43;4.72;;;11.60;99.90;;;10.62;100.00;97771.78;5031682;28;20410;-76
2022/10/31 04:43:27;;;;;;;10.25;5.07;;;11.60;99.90;;;10.58;100.00;97768.81;5031419;28;20403;-76
2022/10/31 04:45:53;;;;;;;10.43;5.30;;;11.60;99.90;;;10.59;100.00;97759.03;5031747;28;20445;-76
2022/10/31 04:48:19;;;;;;;11.07;4.87;;;11.60;99.90;;;10.58;100.00;97765.38;5031774;28;20402;-76
2022/10/31 04:50:44;;;;;;;12.77;4.55;;;11.50;99.90;;;10.55;100.00;97763.19;5031493;28;20931;-76
2022/10/31 04:53:10;;;;;;;10.60;4.78;;;11.50;99.90;;;10.51;100.00;97759.44;5031182;28;20411;-76
2022/10/31 04:55:38;;;;;;;8.60;5.00;;;11.50;99.90;;;10.49;100.00;97757.03;5031333;28;20399;-76
2022/10/31 04:58:03;;;;;;;11.20;5.20;;;11.50;99.90;;;10.48;100.00;97758.88;5031583;28;20839;-76
2022/10/31 05:00:29;;;;;;;9.95;5.20;;;11.50;99.90;;;10.47;100.00;97761.75;5031419;28;20399;-76
2022/10/31 05:02:57;;;;;;;8.98;4.97;;;11.50;99.90;;;10.46;100.00;97745.06;5031113;28;20410;-76
2022/10/31 05:05:25;;;;;;;11.90;5.28;;;11.50;99.90;;;10.47;100.00;97743.22;5031288;28;20966;-76
2022/10/31 05:07:52;;;;;;;11.98;5.47;;;11.50;99.90;;;10.47;100.00;97745.88;5031096;28;20410;-76
2022/10/31 05:10:21;;;;;;;9.93;4.80;;;11.50;99.90;;;10.47;100.00;97743.22;5031074;28;20442;-76
2022/10/31 05:12:51;;;;;;;12.88;5.47;;;11.50;99.90;;;10.44;100.00;97736.59;5030482;28;20557;-76
2022/10/31 05:15:19;;;;;;;10.15;5.22;;;11.40;99.90;;;10.42;100.00;97741.31;5030652;28;20399;-76
2022/10/31 05:17:45;;;;;;;9.57;4.60;;;11.40;99.90;;;10.41;100.00;97737.06;5031166;28;20411;-75
2022/10/31 05:20:12;;;;;;;8.85;4.75;;;11.40;99.90;;;10.39;100.00;97747.06;5030979;28;20424;-75
2022/10/31 05:22:43;;;;;;;12.52;5.32;;;11.40;99.90;;;10.40;100.00;97737.28;5030992;28;20899;-75
2022/10/31 05:25:09;;;;;;;10.88;5.22;;;11.40;99.90;;;10.37;100.00;97748.38;5030985;28;20418;-76
2022/10/31 05:27:37;;;;;;;9.80;4.60;;;11.40;99.90;;;10.34;100.00;97736.41;5030952;28;20812;-76
2022/10/31 05:30:06;;;;;;;10.13;5.00;;;11.30;99.90;;;10.32;100.00;97735.03;5031009;28;20474;-76
2022/10/31 05:32:37;;;;;;;14.53;5.07;;;11.30;99.90;;;10.28;100.00;97740.03;5030917;28;20461;-76
2022/10/31 05:35:05;;;;;;;9.20;4.70;;;11.30;99.90;;;10.28;100.00;97737.38;5030542;28;20403;-75
2022/10/31 05:37:30;;;;;;;11.60;4.75;;;11.20;99.90;;;10.27;100.00;97738.44;5030846;28;20399;-76
2022/10/31 05:39:56;;;;;;;12.70;5.22;;;11.30;99.90;;;10.21;100.00;97728.81;5030766;28;21107;-76
2022/10/31 05:42:22;;;;;;;17.55;5.20;;;11.20;99.90;;;10.22;100.00;97737.53;5030844;28;20435;-76
2022/10/31 05:44:48;;;;;;;13.38;5.32;;;11.20;99.90;;;10.21;100.00;97726.16;5050096;28;20413;-76
2022/10/31 05:47:15;;;;;;;13.87;6.20;;;11.20;99.90;;;10.20;100.00;97731.69;5050615;28;20425;-76
2022/10/31 05:49:41;;;;;;;11.93;4.80;;;11.20;99.90;;;10.15;100.00;97729.72;5037920;28;20415;-76
2022/10/31 05:52:07;;;;;;;10.50;4.82;;;11.20;99.90;;;10.15;100.00;97728.94;5030397;28;20473;-79
2022/10/31 05:54:33;;;;;;;15.32;5.28;;;11.10;99.90;;;10.16;100.00;97726.03;5025582;28;20475;-79
2022/10/31 05:56:59;;;;;;;9.83;5.07;;;11.10;99.90;;;10.15;100.00;97726.28;5029359;28;20472;-82
2022/10/31 05:59:24;;;;;;;10.03;4.70;;;11.10;99.90;;;10.10;100.00;97730.44;5027386;28;20423;-81
2022/10/31 06:01:50;;;;;;;12.68;5.65;;;11.10;99.90;;;10.10;100.00;97727.78;5030152;28;20405;-80
2022/10/31 06:04:18;;;;;;;13.77;5.30;;;11.10;99.90;;;10.12;100.00;97722.28;5029991;28;20481;-81
2022/10/31 06:06:43;;;;;;;12.70;5.70;;;11.10;99.90;;;10.14;100.00;97722.84;5029982;28;20421;-82
2022/10/31 06:09:09;;;;;;;11.63;5.40;;;11.20;99.90;;;10.08;100.00;97727.22;5029406;28;20915;-81
2022/10/31 06:11:35;;;;;;;11.57;5.70;;;11.10;99.90;;;10.09;100.00;97720.91;5030372;28;20514;-81
2022/10/31 06:14:01;;;;;;;13.88;5.70;;;11.10;99.90;;;10.07;100.00;97717.69;5029293;28;20500;-79
2022/10/31 06:16:27;;;;;;;14.23;5.50;;;11.10;99.90;;;10.06;100.00;97721.41;5029766;28;20509;-78
2022/10/31 06:18:53;;;;;;;9.40;5.03;;;11.10;99.90;;;10.08;100.00;97723.78;5029659;28;20764;-79
2022/10/31 06:21:20;;;;;;;15.07;6.00;;;11.10;99.90;;;10.08;100.00;97714.00;5028683;28;20426;-80
2022/10/31 06:23:46;;;;;;;11.87;5.17;;;11.10;99.90;;;10.09;100.00;97717.44;5029367;28;20750;-78
2022/10/31 06:26:12;;;;;;;8.52;4.55;;;11.10;99.90;;;10.05;100.00;97719.78;5032721;28;20464;-78
2022/10/31 06:28:38;;;;;;;11.07;5.05;;;11.00;99.90;;;10.05;100.00;97716.34;5033628;28;20482;-79
2022/10/31 06:31:04;;;;;;;14.80;5.55;;;11.00;99.90;;;10.10;100.00;97719.06;5033733;28;20564;-79
2022/10/31 06:33:30;;;;;;;14.80;5.40;;;11.00;99.90;;;10.09;100.00;97718.25;5033755;28;20407;-80
2022/10/31 06:35:56;;;;;;;8.45;4.80;;;11.10;99.90;;;10.08;100.00;97724.56;5034111;28;20407;-80
2022/10/31 06:38:26;;;;;;;9.68;5.25;;;11.10;99.90;;;10.11;100.00;97723.31;5034288;28;20832;-80
2022/10/31 06:40:52;;;;;;;11.37;5.70;;;11.10;99.90;;;10.13;100.00;97715.94;5034274;28;20471;-80
2022/10/31 06:43:18;;;;;;;11.00;5.43;;;11.10;99.90;;;10.12;100.00;97724.91;5032886;28;20518;-79
2022/10/31 06:45:44;;;;;;;12.65;6.00;;;11.10;99.90;;;10.16;100.00;97727.88;5033056;28;20414;-80
2022/10/31 06:48:10;;;;;;;9.70;5.30;;;11.10;99.90;;;10.18;100.00;97725.81;5033485;28;20402;-79
2022/10/31 06:50:35;;;;;;;9.70;5.30;;;11.20;99.90;;;10.19;100.00;97727.44;5032861;28;20919;-85
2022/10/31 06:53:01;;;;;;;14.48;5.10;;;11.20;99.90;;;10.20;100.00;97727.19;5031709;28;20856;-78
2022/10/31 06:55:29;;;;;;;13.00;6.20;;;11.20;99.90;;;10.22;100.00;97721.69;5033656;28;20488;-78
2022/10/31 06:57:57;;;;;;;11.07;5.63;;;11.20;99.90;;;10.21;100.00;97726.16;5034315;28;20760;-79
2022/10/31 07:00:24;;;;;;;10.70;5.38;;;11.20;99.90;;;10.22;100.00;97719.03;5033932;28;20465;-79
2022/10/31 07:02:55;;;;;;;10.90;5.78;;;11.20;99.90;;;10.24;100.00;97732.78;5033520;28;20407;-79
2022/10/31 07:05:21;;;;;;;11.60;5.32;;;11.20;99.90;;;10.27;100.00;97727.03;5033466;28;20386;-79
2022/10/31 07:07:47;;;;;;;9.27;5.15;;;11.20;99.90;;;10.30;100.00;97737.16;5027734;28;20473;-79
2022/10/31 07:10:13;;;;;;;9.23;5.35;;;11.30;99.90;;;10.32;100.00;97729.75;5029666;28;20502;-79
2022/10/31 07:12:40;;;;;;;12.03;5.83;;;11.30;99.90;;;10.37;100.00;97735.94;5028993;28;20425;-79
2022/10/31 07:15:07;;;;;;;10.20;5.50;;;11.30;99.90;;;10.42;100.00;97730.72;5033114;28;20405;-79
2022/10/31 07:17:33;;;;;;;13.27;5.65;;;11.40;99.90;;;10.44;100.00;97738.44;5029615;28;20460;-78
2022/10/31 07:19:59;;;;;;;12.18;6.18;;;11.40;99.90;;;10.47;100.00;97744.03;5027187;28;20429;-78
2022/10/31 07:22:31;;;;;;;11.70;5.80;;;11.40;99.90;;;10.51;100.00;97738.25;5029611;28;20415;-79
2022/10/31 07:24:57;;;;;;;10.45;6.40;;;11.50;99.90;;;10.55;100.00;97742.81;5031823;28;20391;-78
2022/10/31 07:27:23;;;;;;;12.50;6.27;;;11.50;99.90;;;10.58;100.00;97747.66;5031295;28;20904;-78
2022/10/31 07:29:50;;;;;;;13.55;5.82;;;11.50;99.90;;;10.64;100.00;97751.16;5030462;28;20792;-79
2022/10/31 07:32:16;;;;;;;15.27;7.07;;;11.60;99.90;;;10.68;100.00;97742.47;5032793;28;20446;-79
2022/10/31 07:34:42;;;;;;;18.08;6.28;;;11.60;99.90;;;10.71;100.00;97744.66;5027535;28;20530;-79
2022/10/31 07:37:07;;;;;;;16.20;6.90;;;11.60;99.90;;;10.72;100.00;97738.31;5031590;28;20497;-78
2022/10/31 07:39:33;;;;;;;17.40;6.83;;;11.60;99.90;;;10.75;100.00;97742.34;5032471;28;20414;-78
2022/10/31 07:41:59;;;;;;;12.18;6.13;;;11.60;99.90;;;10.80;100.00;97737.91;5025789;28;20523;-79
2022/10/31 07:44:25;;;;;;;12.40;6.03;;;11.70;99.90;;;10.86;100.00;97741.44;5027599;28;20422;-79
2022/10/31 07:46:52;;;;;;;15.27;6.90;;;11.80;99.90;;;10.91;100.00;97733.53;5022728;28;20434;-80
2022/10/31 07:49:18;;;;;;;9.15;5.93;;;11.80;99.90;;;10.94;100.00;97730.41;5029007;28;20824;-79
2022/10/31 07:51:44;;;;;;;12.38;5.78;;;11.90;99.90;;;11.02;100.00;97734.50;5031348;28;20513;-78
2022/10/31 07:54:10;;;;;;;10.70;5.93;;;11.90;99.90;;;11.09;100.00;97729.81;5030135;28;20443;-78
2022/10/31 07:56:36;;;;;;;12.88;6.25;;;12.00;99.90;;;11.16;100.00;97730.44;5030111;28;20461;-79
2022/10/31 07:59:02;;;;;;;11.88;5.78;;;12.10;99.90;;;11.24;100.00;97730.00;5032522;28;20974;-79
2022/10/31 08:01:28;;;;;;;10.47;5.67;;;12.10;99.90;;;11.32;100.00;97726.94;5032210;28;20463;-79
2022/10/31 08:03:55;;;;;;;15.20;5.50;;;12.20;99.90;;;11.40;100.00;97725.69;5028682;28;20408;-79
2022/10/31 08:06:21;;;;;;;11.82;5.60;;;12.30;99.90;;;11.50;100.00;97734.53;5028755;28;20445;-79
2022/10/31 08:08:46;;;;;;;10.57;5.45;;;12.30;99.90;;;11.57;100.00;97735.19;5031512;28;21248;-80
2022/10/31 08:11:12;;;;;;;11.93;5.10;;;12.40;99.90;;;11.64;100.00;97734.97;5044708;22;20439;-73
2022/10/31 08:13:38;;;;;;;9.83;5.40;;;12.50;99.90;;;11.71;100.00;97732.13;5050515;28;20401;-72
2022/10/31 08:16:07;;;;;;;11.10;5.90;;;12.50;99.90;;;11.78;100.00;97738.88;5052117;28;20918;-71
2022/10/31 08:18:33;;;;;;;10.30;5.25;;;12.60;99.90;;;11.85;100.00;97731.50;5052099;28;20401;-72
2022/10/31 08:21:00;;;;;;;14.30;6.25;;;12.70;99.90;;;11.92;100.00;97733.97;5047759;28;20912;-72
2022/10/31 08:23:26;;;;;;;17.27;7.20;;;12.70;99.90;;;11.98;100.00;97735.59;5031729;28;20472;-74
2022/10/31 08:25:52;;;;;;;17.60;8.75;;;12.80;99.90;;;12.04;100.00;97737.25;5031945;28;20901;-74
2022/10/31 08:28:17;;;;;;;14.95;8.02;;;12.80;99.90;;;12.09;100.00;97725.91;5027511;28;20832;-74
2022/10/31 08:30:45;;;;;;;19.67;8.87;;;12.90;99.90;;;12.13;100.00;97727.78;5028720;28;20464;-73
2022/10/31 08:33:14;;;;;;;15.00;8.35;;;13.00;99.90;;;12.20;100.00;97730.22;5026889;28;20420;-74
2022/10/31 08:35:40;;;;;;;20.33;8.73;;;13.00;99.90;;;12.23;100.00;97730.53;5024160;28;20403;-74
2022/10/31 08:38:09;;;;;;;17.55;8.40;;;13.10;99.90;;;12.30;100.00;97730.31;5024098;28;20427;-74
2022/10/31 08:40:36;;;;;;;14.88;8.23;;;13.10;99.90;;;12.35;100.00;97727.69;5021668;28;20747;-74
2022/10/31 08:43:04;;;;;;;15.65;8.15;;;13.20;99.90;;;12.41;100.00;97724.03;5020449;28;20431;-73
2022/10/31 08:45:33;;;;;;;14.10;8.25;;;13.20;99.90;;;12.47;100.00;97714.25;5023473;28;20455;-73
2022/10/31 08:47:59;;;;;;;16.52;7.93;;;13.30;99.90;;;12.54;100.00;97715.66;5022651;28;20423;-74
2022/10/31 08:50:26;;;;;;;13.48;8.00;;;13.40;99.90;;;12.60;100.00;97714.63;5022520;28;20813;-74
2022/10/31 08:52:52;;;;;;;17.40;8.85;;;13.40;99.90;;;12.66;100.00;97712.78;5021455;28;20435;-75
2022/10/31 08:55:19;;;;;;;14.00;8.02;;;13.40;99.90;;;12.72;100.00;97707.25;5029004;28;20442;-74
2022/10/31 08:57:45;;;;;;;16.08;8.05;;;13.50;99.90;;;12.79;100.00;97718.44;5016799;28;20415;-74
2022/10/31 09:00:11;;;;;;;15.25;7.80;;;13.60;99.90;;;12.86;100.00;97714.75;5023595;28;20790;-74
2022/10/31 09:02:38;;;;;;;11.77;7.38;;;13.60;99.90;;;12.90;100.00;97708.69;5019333;28;20539;-74
2022/10/31 09:05:04;;;;;;;16.33;7.72;;;13.70;99.90;;;12.98;100.00;97710.88;5019408;28;20395;-71
2022/10/31 09:07:30;;;;;;;14.02;8.30;;;13.70;99.90;;;13.00;100.00;97713.25;5021613;28;20491;-75
2022/10/31 09:10:07;;;;;;;16.00;8.45;;;13.80;99.90;;;13.06;100.00;97709.56;5087322;28;20744;-73
2022/10/31 09:12:33;;;;;;;16.90;7.88;;;13.90;99.90;;;13.09;100.00;97712.50;5067433;28;20416;-73
2022/10/31 09:15:01;;;;;;;12.27;7.50;;;13.80;99.90;;;13.13;100.00;97707.50;5059209;28;20407;-74
2022/10/31 09:17:28;;;;;;;14.90;7.95;;;13.90;99.90;;;13.17;100.00;97708.56;5067537;28;20406;-73
2022/10/31 09:19:54;;;;;;;12.40;7.82;;;13.90;99.90;;;13.22;100.00;97711.28;5067445;28;20797;-73
2022/10/31 09:22:20;;;;;;;15.02;7.90;;;14.00;99.90;;;13.27;100.00;97703.31;5067478;28;20416;-73
2022/10/31 09:24:46;;;;;;;12.90;7.97;;;14.00;99.90;;;13.31;100.00;97693.75;5066960;28;20762;-73
2022/10/31 09:27:13;;;;;;;16.90;8.60;;;14.10;99.90;;;13.35;100.00;97694.03;5067428;28;20413;-73
2022/10/31 09:29:39;;;;;;;15.65;8.80;;;14.10;99.90;;;13.40;100.00;97694.84;5067354;28;20427;-73
2022/10/31 09:32:05;;;;;;;15.30;8.20;;;14.10;99.90;;;13.45;100.00;97697.53;5067099;28;20428;-73
2022/10/31 09:34:31;;;;;;;17.60;8.30;;;14.20;99.90;;;13.49;100.00;97693.28;5063181;28;20408;-73
2022/10/31 09:36:57;;;;;;;15.45;7.85;;;14.30;99.90;;;13.55;100.00;97699.41;5060471;28;20430;-73
2022/10/31 09:39:23;;;;;;;13.77;7.63;;;14.30;99.90;;;13.59;100.00;97695.19;5056048;28;20462;-73
2022/10/31 09:42:30;;;;;;;15.10;8.23;;;14.30;99.90;;;13.62;100.00;97696.50;5061645;28;20424;-73
2022/10/31 09:45:07;;;;;;;14.73;7.80;;;14.40;99.90;;;13.71;100.00;97694.91;5043356;28;20778;-73
2022/10/31 09:47:46;;;;;;;14.48;8.15;;;14.50;99.90;;;13.76;100.00;97697.59;5058497;28;20898;-76
2022/10/31 09:50:17;;;;;;;13.93;7.47;;;14.50;99.90;;;13.83;100.00;97698.94;5046863;28;20441;-75
2022/10/31 09:52:51;;;;;;;15.50;7.03;;;14.60;99.90;;;13.89;100.00;97695.22;5046506;28;20444;-74
2022/10/31 09:55:26;;;;;;;15.15;7.82;;;14.60;99.90;;;13.91;100.00;97694.94;5046804;28;20548;-75
2022/10/31 09:57:53;;;;;;;14.52;7.40;;;14.70;99.90;;;13.99;100.00;97697.09;5046785;28;20508;-75
2022/10/31 10:00:22;;;;;;;19.00;7.50;;;14.70;99.90;;;14.05;100.00;97695.25;5046561;28;20445;-75
2022/10/31 10:02:56;;;;;;;15.60;7.17;;;14.70;99.90;;;14.07;100.00;97695.75;5052264;28;20397;-79
2022/10/31 10:05:41;;;;;;;17.08;7.45;;;14.80;99.90;;;14.13;100.00;97697.38;5063299;28;20534;-75
2022/10/31 10:08:14;;;;;;;12.97;7.37;;;14.80;99.90;;;14.18;100.00;97694.72;5070347;28;20406;-75
2022/10/31 10:10:51;;;;;;;13.07;7.00;;;14.80;99.90;;;14.23;100.00;97690.19;5086731;28;20826;-75
2022/10/31 10:13:46;;;;;;;17.15;7.75;;;15.00;99.90;;;14.29;100.00;97683.78;5086305;28;20790;-76
2022/10/31 10:16:36;;;;;;;11.53;6.23;;;15.00;99.90;;;14.35;100.00;97681.94;5086596;28;20431;-76